Time;durP1;ratioP1;P1;durP2;ratioP2;P2;SDS_P1;SDS_P2;PMS_P1;PMS_P2;Temp;Humidity;BMP_temperature;BMP_pressure;BME280_temperature;BME280_humidity;BME280_pressure;Samples;Min_cycle;Max_cycle;Signal;HPM_P1;HPM_P2
2022/12/29 00:01:30;;;;;;;26.43;13.67;;;;;;;-141.28;100.00;50365.53;5070571;28;20496;-77
2022/12/29 00:03:58;;;;;;;24.63;13.97;;;;;;;-141.28;100.00;50447.97;5072745;28;20881;-79
2022/12/29 00:06:26;;;;;;;27.30;15.30;;;;;;;-141.28;100.00;50506.88;5073886;28;20554;-75
2022/12/29 00:08:52;;;;;;;32.00;18.30;;;;;;;-141.28;100.00;50581.47;5069445;28;20988;-77
2022/12/29 00:11:22;;;;;;;40.23;19.53;;;;;;;-141.28;100.00;50724.75;5062660;28;20451;-76
2022/12/29 00:16:35;;;;;;;42.70;21.43;;;;;;;-141.28;100.00;50824.88;5065500;28;20484;-76
2022/12/29 00:19:04;;;;;;;43.27;22.37;;;;;;;-141.28;100.00;50868.06;5072580;28;20446;-79
2022/12/29 00:35:30;;;;;;;49.83;23.80;;;;;;;-141.28;100.00;50828.78;5070708;28;20470;-75
2022/12/29 00:46:15;;;;;;;42.53;23.13;;;;;;;-141.28;100.00;50883.75;5067894;28;20485;-76
2022/12/29 00:51:28;;;;;;;47.97;24.20;;;;;;;-141.28;100.00;50875.91;5057564;28;20526;-77
2022/12/29 00:53:56;;;;;;;52.13;23.47;;;;;;;-141.28;100.00;50928.91;5059884;28;20537;-75
2022/12/29 00:56:23;;;;;;;46.07;22.30;;;;;;;-141.28;100.00;50966.22;5064726;28;20454;-75
2022/12/29 00:58:50;;;;;;;43.90;21.73;;;;;;;-141.28;100.00;50993.69;5043186;28;20443;-76
2022/12/29 01:01:17;;;;;;;50.33;23.97;;;;;;;-141.28;100.00;51009.41;5048773;28;20443;-75
2022/12/29 01:03:44;;;;;;;48.77;22.67;;;;;;;-141.28;100.00;50879.84;5054961;28;20451;-75
2022/12/29 01:06:12;;;;;;;47.17;23.03;;;;;;;-141.28;100.00;50934.81;5035117;28;20436;-78
2022/12/29 01:08:40;;;;;;;40.60;21.57;;;;;;;-141.28;100.00;50895.53;5050920;28;20439;-76
2022/12/29 01:11:08;;;;;;;42.90;21.17;;;;;;;-141.28;100.00;50913.22;5053038;28;20447;-75
2022/12/29 01:13:36;;;;;;;35.43;18.67;;;;;;;-141.28;100.00;50981.91;5051852;28;20518;-77
2022/12/29 01:16:04;;;;;;;35.00;19.30;;;;;;;-141.28;100.00;51017.25;5062360;28;20812;-75
2022/12/29 01:18:31;;;;;;;37.57;18.50;;;;;;;-141.28;100.00;51007.44;5065451;28;20974;-78
2022/12/29 01:21:02;;;;;;;34.60;19.60;;;;;;;-141.28;100.00;51001.56;5056937;28;20824;-75
2022/12/29 01:23:30;;;;;;;29.83;16.93;;;;;;;-141.28;100.00;50966.22;5065353;28;20454;-75
2022/12/29 01:25:58;;;;;;;34.47;18.57;;;;;;;-141.28;100.00;51021.19;5063066;28;20446;-75
2022/12/29 01:28:25;;;;;;;30.80;17.80;;;;;;;-141.28;100.00;50909.28;5067663;28;20500;-79
2022/12/29 01:30:52;;;;;;;35.77;17.33;;;;;;;-141.28;100.00;51066.34;5066318;28;21008;-74
2022/12/29 01:33:19;;;;;;;25.03;15.27;;;;;;;-141.28;100.00;51029.03;5059737;28;20481;-73
2022/12/29 01:35:46;;;;;;;27.83;16.93;;;;;;;-141.28;100.00;50974.06;5082970;28;20470;-75
2022/12/29 01:38:12;;;;;;;27.97;16.07;;;;;;;-141.28;100.00;50966.22;5081189;28;20438;-75
2022/12/29 01:40:49;;;;;;;28.30;14.73;;;;;;;-141.28;100.00;50946.59;5078288;28;20458;-74
2022/12/29 01:43:41;;;;;;;26.33;14.53;;;;;;;-141.28;100.00;50923.03;5076589;28;20492;-76
2022/12/29 01:46:19;;;;;;;25.67;14.80;;;;;;;-141.28;100.00;50868.06;5055449;28;20965;-76
2022/12/29 01:48:47;;;;;;;23.70;14.40;;;;;;;-141.28;100.00;50978.00;5068791;28;20494;-75
2022/12/29 01:51:15;;;;;;;24.40;14.60;;;;;;;-141.28;100.00;51080.06;5055647;28;20448;-75
2022/12/29 01:53:43;;;;;;;22.23;13.93;;;;;;;-141.28;100.00;51174.31;5075126;28;20558;-76
2022/12/29 01:56:13;;;;;;;23.27;13.70;;;;;;;-141.28;100.00;51225.34;5053251;28;20937;-75
2022/12/29 01:58:47;;;;;;;22.33;13.00;;;;;;;-141.28;100.00;51252.84;5069056;28;20458;-78
2022/12/29 02:01:16;;;;;;;21.90;13.40;;;;;;;-141.28;100.00;50926.94;5052267;28;20938;-77
2022/12/29 02:03:43;;;;;;;21.57;12.33;;;;;;;-141.28;100.00;51382.44;5052361;28;20448;-75
2022/12/29 02:06:15;;;;;;;37.97;19.13;;;;;;;-141.28;100.00;51347.09;5048446;28;20497;-73
2022/12/29 02:08:47;;;;;;;28.70;16.50;;;;;;;-141.28;100.00;51319.59;5053882;28;20455;-75
2022/12/29 02:11:14;;;;;;;26.13;16.03;;;;;;;-141.28;100.00;51390.28;5052076;28;20780;-76
2022/12/29 02:13:43;;;;;;;25.00;14.53;;;;;;;-141.28;100.00;51409.91;5052174;28;20540;-75
2022/12/29 02:16:22;;;;;;;26.80;14.00;;;;;;;-141.28;100.00;51488.44;5051482;28;20454;-77
2022/12/29 02:18:57;;;;;;;34.80;19.60;;;;;;;-141.28;100.00;51384.38;5063128;28;20518;-76
2022/12/29 02:21:54;;;;;;;29.93;17.87;;;;;;;-141.28;100.00;51376.53;5053740;28;20466;-75
2022/12/29 02:25:03;;;;;;;32.97;17.83;;;;;;;-141.28;100.00;51262.66;5061290;28;20443;-74
2022/12/29 02:27:41;;;;;;;25.47;15.10;;;;;;;-141.28;100.00;51146.81;5051996;28;20447;-76
2022/12/29 02:30:31;;;;;;;28.20;17.23;;;;;;;-141.28;100.00;51211.63;5062681;28;20438;-75
2022/12/29 02:33:02;;;;;;;23.27;14.27;;;;;;;-141.28;100.00;51217.50;5042723;28;20910;-77
2022/12/29 02:35:37;;;;;;;25.30;14.30;;;;;;;-141.28;100.00;51260.69;5064145;28;20466;-74
2022/12/29 02:38:15;;;;;;;25.40;13.93;;;;;;;-141.28;100.00;51243.03;5059852;28;20442;-74
2022/12/29 02:40:49;;;;;;;26.93;15.17;;;;;;;-141.28;100.00;51296.03;5088474;28;20507;-73
2022/12/29 02:43:27;;;;;;;24.13;13.67;;;;;;;-141.28;100.00;51354.94;5063937;28;20452;-77
2022/12/29 02:46:00;;;;;;;25.00;14.90;;;;;;;-141.28;100.00;51362.78;5062799;28;20961;-77
2022/12/29 02:48:35;;;;;;;24.03;14.63;;;;;;;-141.28;100.00;51378.50;5079617;28;20446;-75
2022/12/29 02:51:05;;;;;;;28.30;14.17;;;;;;;-141.28;100.00;51360.81;5085404;28;20480;-75
2022/12/29 02:56:20;;;;;;;27.10;14.63;;;;;;;-141.28;100.00;51150.75;5060683;28;20453;-75
2022/12/29 02:58:47;;;;;;;28.93;15.83;;;;;;;-141.28;100.00;51248.91;5060022;28;20524;-73
2022/12/29 03:01:28;;;;;;;24.67;14.17;;;;;;;-141.28;100.00;51174.31;5066704;28;20434;-74
2022/12/29 03:04:17;;;;;;;29.20;14.67;;;;;;;-141.28;100.00;51013.31;5069921;28;20945;-75
2022/12/29 03:06:56;;;;;;;25.90;13.97;;;;;;;-141.28;100.00;51005.47;5067630;28;20866;-72
2022/12/29 03:09:36;;;;;;;24.43;13.47;;;;;;;-141.28;100.00;51091.84;5075803;28;20451;-73
2022/12/29 03:12:15;;;;;;;24.83;14.10;;;;;;;-141.28;100.00;51087.94;5076700;28;20520;-73
2022/12/29 03:17:55;;;;;;;24.53;14.00;;;;;;;-141.28;100.00;50840.56;5067699;28;20980;-73
2022/12/29 03:20:32;;;;;;;28.40;14.80;;;;;;;-141.28;100.00;50820.94;5047336;28;20431;-74
2022/12/29 03:23:02;;;;;;;26.63;14.57;;;;;;;-141.28;100.00;50832.72;5060572;28;20493;-73
2022/12/29 03:25:33;;;;;;;25.50;14.40;;;;;;;-141.28;100.00;50954.44;5062277;28;20516;-75
2022/12/29 03:28:04;;;;;;;24.90;14.43;;;;;;;-141.28;100.00;51003.50;5078315;28;20506;-73
2022/12/29 03:30:35;;;;;;;29.10;16.37;;;;;;;-141.28;100.00;50981.91;5080436;28;20434;-74
2022/12/29 03:33:06;;;;;;;29.17;17.67;;;;;;;-141.28;100.00;50960.31;5062829;28;20501;-75
2022/12/29 03:35:37;;;;;;;32.60;17.37;;;;;;;-141.28;100.00;50915.16;5068249;28;20461;-76
2022/12/29 03:38:10;;;;;;;37.03;19.80;;;;;;;-141.28;100.00;51013.31;5054813;28;20810;-76
2022/12/29 03:40:39;;;;;;;40.33;21.47;;;;;;;-141.28;100.00;51190.03;5068095;28;20905;-75
2022/12/29 03:43:06;;;;;;;40.13;20.63;;;;;;;-141.28;100.00;51331.38;5067007;28;20525;-76
2022/12/29 03:45:33;;;;;;;38.93;21.00;;;;;;;-141.28;100.00;51445.25;5068480;28;20495;-76
2022/12/29 03:48:00;;;;;;;53.43;21.70;;;;;;;-141.28;100.00;51523.78;5066604;28;20967;-75
2022/12/29 03:50:28;;;;;;;38.97;20.73;;;;;;;-141.28;100.00;51710.31;5068147;28;20447;-80
2022/12/29 03:52:55;;;;;;;33.50;18.43;;;;;;;-141.28;100.00;51773.16;5065687;28;20880;-76
2022/12/29 03:55:22;;;;;;;34.03;18.50;;;;;;;-141.28;100.00;51857.59;5068207;28;20435;-78
2022/12/29 03:57:49;;;;;;;32.83;17.87;;;;;;;-141.28;100.00;51924.38;5069886;28;20575;-76
2022/12/29 04:00:16;;;;;;;36.70;20.77;;;;;;;-141.28;100.00;51971.50;5068266;28;20849;-77
2022/12/29 04:02:43;;;;;;;36.43;20.07;;;;;;;-141.28;100.00;52134.50;5054167;28;20946;-77
2022/12/29 04:05:11;;;;;;;42.30;20.27;;;;;;;-141.28;100.00;52301.41;5061280;28;20503;-77
2022/12/29 04:07:39;;;;;;;37.73;20.27;;;;;;;-141.28;100.00;52411.41;5059137;28;20933;-75
2022/12/29 04:10:07;;;;;;;37.23;19.27;;;;;;;-141.28;100.00;52521.38;5054464;28;20467;-76
2022/12/29 04:12:33;;;;;;;40.87;21.13;;;;;;;-141.28;100.00;52541.03;5053189;28;20530;-76
2022/12/29 04:15:00;;;;;;;38.10;20.00;;;;;;;-141.28;100.00;52666.72;5054120;28;20544;-76
2022/12/29 04:17:27;;;;;;;35.20;19.07;;;;;;;-141.28;100.00;52729.59;5056523;28;20451;-74
2022/12/29 04:20:59;;;;;;;49.70;20.07;;;;;;;-141.28;100.00;52784.59;5064863;28;20443;-77
2022/12/29 04:22:42;;;;;;;32.87;17.57;;;;;;;-141.28;100.00;52489.97;5056728;28;20523;-77
2022/12/29 04:25:09;;;;;;;36.60;18.67;;;;;;;-141.28;100.00;52723.69;5063485;28;20821;-76
2022/12/29 04:27:36;;;;;;;32.27;18.07;;;;;;;-141.28;100.00;52749.22;5063505;28;20450;-77
2022/12/29 04:30:03;;;;;;;36.03;17.50;;;;;;;-141.28;100.00;52774.75;5074040;28;20488;-75
2022/12/29 04:32:30;;;;;;;33.70;17.07;;;;;;;-141.28;100.00;52617.63;5072769;28;20438;-77
2022/12/29 04:34:57;;;;;;;31.07;17.10;;;;;;;-141.28;100.00;52867.06;5072226;28;20867;-75
2022/12/29 04:37:24;;;;;;;37.07;19.10;;;;;;;-141.28;100.00;52920.13;5073660;28;20519;-77
2022/12/29 04:39:52;;;;;;;33.07;17.47;;;;;;;-141.28;100.00;52890.66;5072870;28;20473;-75
2022/12/29 04:42:19;;;;;;;33.97;15.80;;;;;;;-141.28;100.00;52847.44;5060755;28;20451;-76
2022/12/29 04:44:46;;;;;;;26.93;14.80;;;;;;;-141.28;100.00;52855.28;5052555;28;20525;-77
2022/12/29 04:47:13;;;;;;;33.13;15.30;;;;;;;-141.28;100.00;52517.47;5052341;28;20443;-74
2022/12/29 04:49:40;;;;;;;26.17;14.17;;;;;;;-141.28;100.00;52876.91;5046960;28;20526;-76
2022/12/29 04:52:08;;;;;;;28.07;15.27;;;;;;;-141.28;100.00;52898.50;5072639;28;20870;-77
2022/12/29 04:54:34;;;;;;;24.90;14.43;;;;;;;-141.28;100.00;52869.03;5057502;28;20489;-77
2022/12/29 04:57:03;;;;;;;33.73;16.93;;;;;;;-141.28;100.00;52806.19;5059713;28;20538;-76
2022/12/29 04:59:31;;;;;;;28.30;15.23;;;;;;;-141.28;100.00;52839.56;5072877;28;20443;-77
2022/12/29 05:01:58;;;;;;;26.23;15.20;;;;;;;-141.28;100.00;52833.69;5062215;28;20875;-78
2022/12/29 05:04:29;;;;;;;30.30;15.17;;;;;;;-141.28;100.00;52776.72;5066825;28;20443;-75
2022/12/29 05:06:56;;;;;;;22.60;13.63;;;;;;;-141.28;100.00;52713.88;5053404;28;20447;-77
2022/12/29 05:09:24;;;;;;;27.90;14.77;;;;;;;-141.28;100.00;52764.94;5071149;28;20531;-77
2022/12/29 05:11:50;;;;;;;28.73;14.60;;;;;;;-141.28;100.00;52550.84;5073646;28;20533;-75
2022/12/29 05:14:19;;;;;;;24.50;14.37;;;;;;;-141.28;100.00;52643.16;5071271;28;20531;-76
2022/12/29 05:16:46;;;;;;;24.80;14.43;;;;;;;-141.28;100.00;52124.66;5072244;28;20453;-77
2022/12/29 05:19:13;;;;;;;24.70;14.00;;;;;;;-141.28;100.00;52580.31;5072673;28;20451;-74
2022/12/29 05:21:40;;;;;;;32.53;15.97;;;;;;;-141.28;100.00;52651.00;5072169;28;20476;-75
2022/12/29 05:24:07;;;;;;;24.73;13.97;;;;;;;-141.28;100.00;52611.72;5060921;28;20454;-75
2022/12/29 05:26:34;;;;;;;34.07;18.47;;;;;;;-141.28;100.00;52541.03;5072040;28;20458;-76
2022/12/29 05:29:01;;;;;;;32.40;15.67;;;;;;;-141.28;100.00;52625.47;5062309;28;20497;-75
2022/12/29 05:31:30;;;;;;;25.67;15.67;;;;;;;-141.28;100.00;52511.56;5071811;28;20447;-76
2022/12/29 05:33:57;;;;;;;30.50;15.83;;;;;;;-141.28;100.00;52482.09;5062607;28;20904;-75
2022/12/29 05:36:25;;;;;;;28.23;17.70;;;;;;;-141.28;100.00;52489.97;5072097;28;20447;-79
2022/12/29 05:38:52;;;;;;;36.50;16.80;;;;;;;-141.28;100.00;52456.56;5072451;28;20438;-75
2022/12/29 05:41:19;;;;;;;33.33;18.03;;;;;;;-141.28;100.00;52407.47;5072634;28;20442;-75
2022/12/29 05:43:46;;;;;;;31.30;18.83;;;;;;;-141.28;100.00;52411.41;5058497;28;20538;-78
2022/12/29 05:46:13;;;;;;;34.67;19.57;;;;;;;-141.28;100.00;52462.47;5059324;28;20446;-75
2022/12/29 05:48:41;;;;;;;38.40;21.53;;;;;;;-141.28;100.00;52391.75;5071000;28;20516;-74
2022/12/29 05:51:08;;;;;;;33.73;18.30;;;;;;;-141.28;100.00;52368.19;5069138;28;20818;-75
2022/12/29 05:53:36;;;;;;;31.37;17.43;;;;;;;-141.28;100.00;52531.22;5059312;28;20467;-74
2022/12/29 05:56:03;;;;;;;43.57;20.07;;;;;;;-141.28;100.00;52529.25;5052564;28;20995;-72
2022/12/29 05:58:31;;;;;;;34.67;16.83;;;;;;;-141.28;100.00;52501.75;5052464;28;20478;-72
2022/12/29 06:00:58;;;;;;;31.03;15.50;;;;;;;-141.28;100.00;52541.03;5039810;28;20451;-77
2022/12/29 06:03:25;;;;;;;36.93;17.03;;;;;;;-141.28;100.00;52515.50;5051584;28;20501;-78
2022/12/29 06:05:53;;;;;;;34.13;15.10;;;;;;;-141.28;100.00;52556.75;5042932;28;20539;-76
2022/12/29 06:08:20;;;;;;;32.23;14.53;;;;;;;-141.28;100.00;52527.28;5067773;28;20823;-74
2022/12/29 06:10:47;;;;;;;30.87;15.43;;;;;;;-141.28;100.00;52519.41;5071470;28;20470;-74
2022/12/29 06:13:14;;;;;;;27.90;14.60;;;;;;;-141.28;100.00;52533.16;5054948;28;20451;-77
2022/12/29 06:15:41;;;;;;;36.73;19.83;;;;;;;-141.28;100.00;52574.41;5063690;28;20979;-73
2022/12/29 06:18:08;;;;;;;33.20;18.63;;;;;;;-141.28;100.00;52584.25;5071114;28;20446;-74
2022/12/29 06:20:35;;;;;;;55.13;27.67;;;;;;;-141.28;100.00;52552.81;5059572;28;20458;-76
2022/12/29 06:23:04;;;;;;;47.17;23.90;;;;;;;-141.28;100.00;52757.09;5060087;28;20509;-74
2022/12/29 06:25:32;;;;;;;65.83;32.73;;;;;;;-141.28;100.00;52823.88;5064671;28;20449;-77
2022/12/29 06:27:59;;;;;;;45.03;24.03;;;;;;;-141.28;100.00;52912.25;5063488;28;20448;-76
2022/12/29 06:30:26;;;;;;;48.67;24.83;;;;;;;-141.28;100.00;53091.00;5070719;28;20438;-75
2022/12/29 06:32:54;;;;;;;46.27;22.57;;;;;;;-141.28;100.00;53181.38;5064033;28;20446;-76
2022/12/29 06:35:22;;;;;;;45.90;21.63;;;;;;;-141.28;100.00;52780.66;5050532;28;20483;-74
2022/12/29 06:37:49;;;;;;;37.20;19.00;;;;;;;-141.28;100.00;51704.44;5071669;28;20529;-76
2022/12/29 06:40:17;;;;;;;36.73;18.97;;;;;;;-141.28;100.00;50889.66;5071376;28;20445;-73
2022/12/29 06:42:44;;;;;;;86.07;39.17;;;;;;;-141.28;100.00;50271.31;5045256;28;20438;-77
2022/12/29 06:45:11;;;;;;;75.30;37.00;;;;;;;-141.28;100.00;50302.72;5066917;28;20841;-79
2022/12/29 06:47:38;;;;;;;75.90;36.00;;;;;;;-141.28;100.00;50306.66;5071789;28;20434;-79
2022/12/29 06:50:06;;;;;;;78.37;38.90;;;;;;;-141.28;100.00;50330.22;5062196;28;20886;-79
2022/12/29 06:52:33;;;;;;;112.43;50.67;;;;;;;-141.28;100.00;50573.59;5071440;28;20512;-77
2022/12/29 06:55:00;;;;;;;69.57;32.93;;;;;;;-141.28;100.00;50954.44;5055204;28;20492;-79
2022/12/29 06:57:29;;;;;;;36.07;18.73;;;;;;;-141.28;100.00;50936.75;5057371;28;20777;-78
2022/12/29 06:59:56;;;;;;;30.33;16.03;;;;;;;-141.28;100.00;50964.25;5059387;28;20442;-76
2022/12/29 07:02:25;;;;;;;34.07;18.43;;;;;;;-141.28;100.00;50928.91;5056313;28;20517;-79
2022/12/29 07:07:23;;;;;;;33.80;19.57;;;;;;;-141.28;100.00;51633.75;5007699;28;20469;-67
2022/12/29 07:09:50;;;;;;;39.60;18.97;;;;;;;-141.28;100.00;51378.50;5005270;28;20445;-66
2022/12/29 07:12:18;;;;;;;28.83;18.17;;;;;;;-141.28;100.00;51205.72;5012498;28;20530;-66
2022/12/29 07:14:49;;;;;;;41.00;19.67;;;;;;;-141.28;100.00;50966.22;5008101;28;20556;-64
2022/12/29 07:17:16;;;;;;;34.77;18.93;;;;;;;-141.28;100.00;50752.22;5009884;28;20939;-64
2022/12/29 07:19:44;;;;;;;30.47;17.60;;;;;;;-141.28;100.00;50630.53;5000676;28;20493;-67
2022/12/29 07:22:11;;;;;;;38.10;20.03;;;;;;;-141.28;100.00;50514.72;5007375;28;20452;-67
2022/12/29 07:24:38;;;;;;;31.80;19.50;;;;;;;-141.28;100.00;50306.66;5006764;28;20994;-65
2022/12/29 07:27:07;;;;;;;37.03;18.97;;;;;;;-141.28;100.00;50220.28;5011462;28;20457;-64
2022/12/29 07:29:34;;;;;;;38.03;20.00;;;;;;;-141.28;100.00;50092.72;5014143;28;20461;-64
2022/12/29 07:32:03;;;;;;;36.10;18.50;;;;;;;-141.28;100.00;50016.19;5015803;28;20453;-65
2022/12/29 07:34:30;;;;;;;44.70;18.00;;;;;;;-141.28;100.00;49961.22;5015004;28;20872;-64
2022/12/29 07:36:57;;;;;;;32.97;17.10;;;;;;;-141.28;100.00;49937.69;5017836;28;20452;-65
2022/12/29 07:39:27;;;;;;;37.73;17.50;;;;;;;-141.28;100.00;49894.50;5021351;28;20504;-66
2022/12/29 07:41:54;;;;;;;32.17;17.50;;;;;;;-141.28;100.00;49990.66;5025865;28;20455;-65
2022/12/29 07:44:21;;;;;;;29.67;18.40;;;;;;;-141.28;100.00;50330.22;5014151;28;20546;-65
2022/12/29 07:46:49;;;;;;;40.13;18.93;;;;;;;-141.28;100.00;50491.16;5014487;28;20552;-65
2022/12/29 07:49:17;;;;;;;37.13;17.33;;;;;;;-141.28;100.00;50671.75;5014329;28;21044;-65
2022/12/29 07:51:45;;;;;;;27.13;16.20;;;;;;;-141.28;100.00;50387.13;5013093;28;20457;-64
2022/12/29 07:54:12;;;;;;;27.47;16.07;;;;;;;-141.28;100.00;50263.47;5014212;28;21151;-64
2022/12/29 07:56:39;;;;;;;35.03;17.50;;;;;;;-141.28;100.00;50232.06;5013730;28;20924;-64
2022/12/29 07:59:06;;;;;;;35.00;16.87;;;;;;;-141.28;100.00;50204.59;5018897;28;20457;-64
2022/12/29 08:01:45;;;;;;;32.10;16.90;;;;;;;-141.28;100.00;50171.22;5008369;28;20446;-63
2022/12/29 08:04:12;;;;;;;35.33;17.53;;;;;;;-141.28;100.00;50118.25;5023659;23;20573;-65
2022/12/29 08:06:40;;;;;;;38.57;18.63;;;;;;;-141.28;100.00;50059.34;5002660;28;20543;-66
2022/12/29 08:09:08;;;;;;;37.57;18.03;;;;;;;-141.28;100.00;50029.91;5009499;28;20507;-63
2022/12/29 08:11:36;;;;;;;30.30;17.57;;;;;;;-141.28;100.00;50045.63;5010756;28;20945;-65
2022/12/29 08:14:03;;;;;;;31.63;17.63;;;;;;;-141.28;100.00;50055.44;4998025;28;20941;-64
2022/12/29 08:16:31;;;;;;;37.90;18.07;;;;;;;-141.28;100.00;50037.78;5012785;28;21189;-63
2022/12/29 08:18:58;;;;;;;33.27;17.87;;;;;;;-141.28;100.00;50086.84;5010014;28;20484;-63
2022/12/29 08:21:26;;;;;;;34.80;18.13;;;;;;;-141.28;100.00;50055.44;5004990;28;20529;-63
2022/12/29 08:23:54;;;;;;;38.93;20.27;;;;;;;-141.28;100.00;50047.59;5006316;28;20450;-63
2022/12/29 08:26:21;;;;;;;31.30;18.10;;;;;;;-141.28;100.00;50031.88;5006762;28;20532;-63
2022/12/29 08:28:48;;;;;;;36.17;20.00;;;;;;;-141.28;100.00;50059.34;5007298;28;20486;-64
2022/12/29 08:31:15;;;;;;;42.33;18.23;;;;;;;-141.28;100.00;50047.59;5006470;28;20491;-64
2022/12/29 08:33:43;;;;;;;40.03;18.47;;;;;;;-141.28;100.00;50055.44;5006501;28;20903;-64
2022/12/29 08:36:10;;;;;;;35.67;18.67;;;;;;;-141.28;100.00;50059.34;5006213;28;20488;-64
2022/12/29 08:38:37;;;;;;;34.57;18.53;;;;;;;-141.28;100.00;50051.50;5014837;28;20929;-64
2022/12/29 08:41:06;;;;;;;38.50;19.47;;;;;;;-141.28;100.00;50008.34;5026121;28;20456;-63
2022/12/29 08:43:33;;;;;;;36.53;19.47;;;;;;;-141.28;100.00;49992.63;5013334;28;20481;-63
2022/12/29 08:46:00;;;;;;;36.60;20.97;;;;;;;-141.28;100.00;50022.06;5026115;28;20875;-64
2022/12/29 08:48:28;;;;;;;38.87;22.47;;;;;;;-141.28;100.00;49992.63;5013238;28;21052;-63
2022/12/29 08:50:55;;;;;;;44.43;23.33;;;;;;;-141.28;100.00;50000.47;5015551;28;20535;-64
2022/12/29 08:53:22;;;;;;;38.20;19.67;;;;;;;-141.28;100.00;49998.50;5026262;28;20444;-63
2022/12/29 08:56:07;;;;;;;38.60;21.60;;;;;;;-141.28;100.00;49992.63;5018889;28;20980;-63
2022/12/29 08:58:34;;;;;;;35.93;19.73;;;;;;;-141.28;100.00;50004.41;5016232;28;20544;-63
2022/12/29 09:01:01;;;;;;;33.73;19.57;;;;;;;-141.28;100.00;50024.03;5025334;28;20548;-64
2022/12/29 09:03:28;;;;;;;45.90;20.60;;;;;;;-141.28;100.00;50053.47;5024754;28;20538;-64
2022/12/29 09:05:56;;;;;;;39.67;21.03;;;;;;;-141.28;100.00;50108.44;5013087;28;20477;-63
2022/12/29 09:08:24;;;;;;;36.67;20.27;;;;;;;-141.28;100.00;50088.78;5012227;28;20465;-62
2022/12/29 09:10:51;;;;;;;47.37;22.60;;;;;;;-141.28;100.00;50106.47;5012305;28;20978;-63
2022/12/29 09:13:20;;;;;;;41.93;22.07;;;;;;;-141.28;100.00;50147.69;5012424;28;20461;-63
2022/12/29 09:15:47;;;;;;;40.27;21.80;;;;;;;-141.28;100.00;50147.69;5011817;28;20542;-63
2022/12/29 09:18:14;;;;;;;42.37;22.60;;;;;;;-141.28;100.00;50145.72;5016496;28;20466;-63
2022/12/29 09:20:41;;;;;;;43.10;21.83;;;;;;;-141.28;100.00;50088.78;5024847;28;20506;-63
2022/12/29 09:23:08;;;;;;;40.33;22.20;;;;;;;-141.28;100.00;50108.44;5012392;28;21028;-63
2022/12/29 09:25:35;;;;;;;40.27;23.43;;;;;;;-141.28;100.00;50114.31;5011865;28;20437;-65
2022/12/29 09:28:07;;;;;;;41.43;23.67;;;;;;;-141.28;100.00;50130.00;5018434;28;20892;-64
2022/12/29 09:30:36;;;;;;;42.03;23.97;;;;;;;-141.28;100.00;50102.53;5012628;28;20464;-63
2022/12/29 09:33:03;;;;;;;49.10;24.73;;;;;;;-141.28;100.00;50075.06;5011296;28;20856;-64
2022/12/29 09:35:30;;;;;;;38.10;22.60;;;;;;;-141.28;100.00;50108.44;5012067;28;20520;-63
2022/12/29 09:37:57;;;;;;;38.83;22.47;;;;;;;-141.28;100.00;50141.78;5021654;28;20492;-64
2022/12/29 09:40:30;;;;;;;34.87;21.27;;;;;;;-141.28;100.00;50167.31;5011968;28;20460;-64
2022/12/29 09:46:14;;;;;;;36.60;21.97;;;;;;;-141.28;100.00;50251.69;5010370;28;20441;-64
2022/12/29 09:48:49;;;;;;;40.77;21.63;;;;;;;-141.28;100.00;50255.63;5011875;28;20449;-63
2022/12/29 09:51:22;;;;;;;53.80;21.97;;;;;;;-141.28;100.00;50257.59;5024933;28;20522;-63
2022/12/29 09:53:55;;;;;;;37.80;21.30;;;;;;;-141.28;100.00;50192.81;5011900;28;20514;-63
2022/12/29 09:56:25;;;;;;;33.93;20.47;;;;;;;-141.28;100.00;50230.13;5022538;28;20481;-64
2022/12/29 09:58:58;;;;;;;35.33;21.10;;;;;;;-141.28;100.00;50220.28;5018688;28;20966;-64
2022/12/29 10:01:32;;;;;;;32.83;18.57;;;;;;;-141.28;100.00;50236.00;5001020;28;20545;-64
2022/12/29 10:04:04;;;;;;;32.47;19.20;;;;;;;-141.28;100.00;50220.28;5013932;28;20483;-64
2022/12/29 10:06:42;;;;;;;33.17;20.13;;;;;;;-141.28;100.00;50251.69;5030914;28;20949;-64
2022/12/29 10:09:17;;;;;;;37.43;20.10;;;;;;;-141.28;100.00;50212.44;5017109;28;20447;-64
2022/12/29 10:12:03;;;;;;;34.53;18.83;;;;;;;-141.28;100.00;50210.47;5030961;28;20440;-64
2022/12/29 10:14:48;;;;;;;32.87;18.07;;;;;;;-141.28;100.00;50220.28;5001053;28;20445;-64
2022/12/29 10:17:26;;;;;;;32.43;18.20;;;;;;;-141.28;100.00;50355.72;5015918;28;20639;-64
2022/12/29 10:20:12;;;;;;;35.77;18.43;;;;;;;-141.28;100.00;50306.66;5030452;28;20514;-64
2022/12/29 10:22:52;;;;;;;29.70;18.47;;;;;;;-141.28;100.00;50389.09;5017418;28;20548;-64
2022/12/29 10:25:21;;;;;;;28.50;17.37;;;;;;;-141.28;100.00;50393.03;5009469;28;20545;-64
2022/12/29 10:27:50;;;;;;;40.47;19.17;;;;;;;-141.28;100.00;50420.50;5006634;28;20453;-64
2022/12/29 10:30:18;;;;;;;33.80;18.07;;;;;;;-141.28;100.00;50410.69;5015253;28;20541;-64
2022/12/29 10:32:53;;;;;;;31.43;19.90;;;;;;;-141.28;100.00;50446.03;5011128;28;20453;-64
2022/12/29 10:35:21;;;;;;;29.97;17.63;;;;;;;-141.28;100.00;50532.38;5014964;28;20772;-65
2022/12/29 10:37:58;;;;;;;33.53;17.90;;;;;;;-141.28;100.00;50738.50;5010287;28;20539;-65
2022/12/29 10:40:28;;;;;;;28.63;17.30;;;;;;;-141.28;100.00;51472.75;5011109;28;20248;-64
2022/12/29 10:42:58;;;;;;;32.67;17.23;;;;;;;-141.28;100.00;51985.25;5010974;28;20930;-64
2022/12/29 10:45:32;;;;;;;27.63;17.60;;;;;;;-141.28;100.00;52101.09;5014488;28;20445;-64
2022/12/29 10:48:04;;;;;;;31.80;17.37;;;;;;;-141.28;100.00;52018.63;5010984;28;20202;-64
2022/12/29 10:50:31;;;;;;;28.80;17.67;;;;;;;-141.28;100.00;51904.72;5010992;28;20206;-65
2022/12/29 10:53:02;;;;;;;29.20;17.87;;;;;;;-141.28;100.00;51861.53;5015434;28;20206;-64
2022/12/29 10:55:34;;;;;;;29.57;18.13;;;;;;;-141.28;100.00;51716.22;5015968;28;20271;-64
2022/12/29 10:58:05;;;;;;;32.03;17.30;;;;;;;-141.28;100.00;51606.25;5015805;28;20210;-64
2022/12/29 11:00:33;;;;;;;42.07;19.83;;;;;;;-141.28;100.00;51447.22;5010841;28;20232;-64
2022/12/29 11:03:30;;;;;;;33.93;19.13;;;;;;;-141.28;100.00;51080.06;5010491;28;20201;-64
2022/12/29 11:06:04;;;;;;;28.97;17.80;;;;;;;-141.28;100.00;50640.34;4993058;28;20241;-64
2022/12/29 11:08:36;;;;;;;30.50;18.97;;;;;;;-141.28;100.00;50542.19;5010868;28;20213;-66
2022/12/29 11:11:06;;;;;;;31.47;19.07;;;;;;;-141.28;100.00;50422.47;5009742;28;20289;-65
2022/12/29 11:13:35;;;;;;;31.50;19.63;;;;;;;-141.28;100.00;50722.78;5010458;28;20230;-63
2022/12/29 11:16:03;;;;;;;35.40;20.03;;;;;;;-141.28;100.00;50620.72;5011385;28;20230;-65
2022/12/29 11:18:36;;;;;;;36.80;21.43;;;;;;;-141.28;100.00;50569.69;5011844;28;20238;-64
2022/12/29 11:21:08;;;;;;;32.77;20.20;;;;;;;-141.28;100.00;50387.13;5016685;28;20289;-64
2022/12/29 11:23:37;;;;;;;40.13;20.77;;;;;;;-141.28;100.00;50451.91;5011621;28;20205;-64
2022/12/29 11:26:14;;;;;;;32.70;21.90;;;;;;;-141.28;100.00;50184.97;5010515;28;20608;-65
2022/12/29 11:28:43;;;;;;;31.97;19.63;;;;;;;-141.28;100.00;50071.13;5010260;28;20206;-64
2022/12/29 11:31:10;;;;;;;29.07;19.90;;;;;;;-141.28;100.00;49890.56;5216222;22;20229;-79
2022/12/29 11:33:38;;;;;;;30.40;20.60;;;;;;;-141.28;100.00;49401.94;4998615;28;20226;-80
2022/12/29 11:36:13;;;;;;;36.97;21.83;;;;;;;-141.28;100.00;49376.44;5013816;28;20228;-82
2022/12/29 11:38:42;;;;;;;35.70;21.30;;;;;;;-141.28;100.00;49313.66;5002107;28;20224;-81
2022/12/29 11:41:14;;;;;;;32.43;21.73;;;;;;;-141.28;100.00;49307.75;5006694;28;20199;-80
2022/12/29 11:43:44;;;;;;;30.57;21.20;;;;;;;-141.28;100.00;49248.88;5008004;28;20617;-81
2022/12/29 11:46:18;;;;;;;32.00;21.17;;;;;;;-141.28;100.00;49213.56;5011981;28;20214;-78